createdAt,value
2018-01-20T00:01:55.571Z,15.87
2018-01-20T00:04:25.141Z,8.87
2018-01-20T00:06:54.705Z,10.27
2018-01-20T00:09:29.995Z,9.70
2018-01-20T00:12:02.477Z,9.40
2018-01-20T00:14:31.964Z,10.40
2018-01-20T00:17:01.640Z,9.77
2018-01-20T00:19:31.415Z,10.00
2018-01-20T00:22:05.554Z,8.33
2018-01-20T00:24:40.713Z,5.17
2018-01-20T00:27:16.434Z,8.07
2018-01-20T00:29:45.981Z,17.53
2018-01-20T00:32:15.548Z,4.80
2018-01-20T00:34:45.053Z,10.23
2018-01-20T00:37:14.924Z,4.07
2018-01-20T00:39:51.459Z,6.90
2018-01-20T00:42:21.008Z,4.17
2018-01-20T00:44:50.553Z,3.03
2018-01-20T00:47:20.720Z,3.03
2018-01-20T00:49:51.016Z,10.80
2018-01-20T00:52:21.445Z,3.77
2018-01-20T00:54:50.952Z,4.03
2018-01-20T00:57:20.450Z,4.70
2018-01-20T00:59:50.213Z,3.83
2018-01-20T01:02:19.934Z,2.17
2018-01-20T01:04:50.199Z,7.67
2018-01-20T01:07:19.705Z,4.13
2018-01-20T01:09:49.231Z,4.87
2018-01-20T01:12:18.737Z,3.77
2018-01-20T01:14:48.283Z,5.27
2018-01-20T01:17:17.764Z,4.73
2018-01-20T01:19:50.437Z,8.83
2018-01-20T01:22:27.738Z,1.67
2018-01-20T01:24:57.287Z,2.13
2018-01-20T01:27:27.242Z,4.60
2018-01-20T01:29:56.770Z,1.90
2018-01-20T01:32:33.929Z,2.03
2018-01-20T01:35:09.322Z,6.00
2018-01-20T01:37:39.008Z,5.73
2018-01-20T01:40:08.792Z,7.37
2018-01-20T01:42:38.329Z,13.30
2018-01-20T01:45:08.193Z,5.40
2018-01-20T01:47:37.720Z,3.00
2018-01-20T01:50:08.202Z,4.70
2018-01-20T01:52:37.868Z,2.40
2018-01-20T01:55:07.413Z,2.63
2018-01-20T01:57:36.976Z,4.40
2018-01-20T02:00:09.660Z,6.10
2018-01-20T02:02:39.676Z,7.00
2018-01-20T02:05:09.230Z,3.53
2018-01-20T02:07:38.749Z,4.00
2018-01-20T02:10:08.327Z,3.63
2018-01-20T02:12:37.844Z,1.90
2018-01-20T02:15:07.371Z,4.23
2018-01-20T02:17:36.943Z,5.70
2018-01-20T02:20:06.465Z,1.70
2018-01-20T02:22:36.025Z,5.03
2018-01-20T02:25:05.713Z,4.53
2018-01-20T02:27:35.416Z,5.17
2018-01-20T02:30:05.024Z,10.50
2018-01-20T02:32:34.608Z,7.60
2018-01-20T02:35:04.191Z,4.10
2018-01-20T02:37:33.802Z,4.73
2018-01-20T02:40:07.690Z,2.80
2018-01-20T02:42:37.553Z,6.63
2018-01-20T02:45:07.244Z,4.40
2018-01-20T02:47:36.792Z,3.47
2018-01-20T02:50:06.329Z,2.80
2018-01-20T02:52:35.867Z,6.90
2018-01-20T02:55:05.673Z,3.53
2018-01-20T02:57:35.301Z,6.50
2018-01-20T03:00:04.883Z,5.13
2018-01-20T03:02:34.529Z,3.47
2018-01-20T03:05:04.118Z,5.37
2018-01-20T03:07:33.702Z,2.33
2018-01-20T03:10:03.261Z,5.77
2018-01-20T03:12:39.881Z,5.63
2018-01-20T03:15:09.608Z,5.87
2018-01-20T03:17:39.171Z,3.13
2018-01-20T03:20:08.649Z,3.60
2018-01-20T03:22:38.165Z,2.43
2018-01-20T03:25:07.684Z,4.30
2018-01-20T03:27:37.290Z,2.27
2018-01-20T03:30:06.868Z,3.70
2018-01-20T03:32:36.813Z,1.70
2018-01-20T03:35:06.432Z,3.87
2018-01-20T03:37:36.087Z,4.30
2018-01-20T03:40:05.642Z,2.03
2018-01-20T03:42:35.282Z,2.20
2018-01-20T03:45:04.922Z,3.97
2018-01-20T03:47:53.732Z,5.57
2018-01-20T03:50:23.247Z,3.40
2018-01-20T03:52:52.815Z,4.67
2018-01-20T03:55:22.469Z,6.00
2018-01-20T03:57:51.943Z,5.20
2018-01-20T04:00:21.493Z,5.43
2018-01-20T04:02:51.154Z,7.53
2018-01-20T04:05:20.770Z,2.60
2018-01-20T04:07:53.865Z,2.63
2018-01-20T04:10:23.409Z,2.57
2018-01-20T04:12:52.984Z,10.00
2018-01-20T04:15:22.755Z,2.40
2018-01-20T04:17:52.956Z,2.60
2018-01-20T04:20:22.482Z,1.80
2018-01-20T04:22:52.006Z,3.77
2018-01-20T04:25:21.625Z,3.20
2018-01-20T04:27:51.167Z,3.90
2018-01-20T04:30:23.640Z,4.60
2018-01-20T04:32:53.129Z,2.10
2018-01-20T04:35:22.645Z,2.90
2018-01-20T04:37:52.174Z,2.37
2018-01-20T04:40:34.264Z,5.73
2018-01-20T04:43:04.048Z,2.30
2018-01-20T04:45:33.770Z,3.13
2018-01-20T04:48:04.511Z,3.07
2018-01-20T04:50:34.068Z,3.60
2018-01-20T04:53:03.623Z,3.83
2018-01-20T04:55:33.171Z,3.97
2018-01-20T04:58:02.702Z,8.13
2018-01-20T05:00:32.181Z,3.27
2018-01-20T05:03:01.719Z,5.97
2018-01-20T05:05:31.260Z,10.50
2018-01-20T05:08:01.563Z,11.93
2018-01-20T05:10:31.080Z,16.60
2018-01-20T05:13:00.577Z,8.27
2018-01-20T05:15:30.098Z,3.07
2018-01-20T05:17:59.669Z,4.30
2018-01-20T05:20:29.229Z,17.00
2018-01-20T05:23:11.108Z,24.00
2018-01-20T05:25:40.657Z,40.57
2018-01-20T05:28:10.405Z,42.03
2018-01-20T05:30:39.893Z,45.53
2018-01-20T05:33:09.660Z,27.83
2018-01-20T05:35:40.908Z,22.87
2018-01-20T05:38:10.459Z,73.30
2018-01-20T05:40:39.937Z,54.47
2018-01-20T05:43:09.439Z,108.40
2018-01-20T05:45:51.240Z,13.13
2018-01-20T05:48:20.793Z,13.70
2018-01-20T05:51:01.961Z,61.27
2018-01-20T05:53:32.053Z,63.87
2018-01-20T05:56:01.598Z,66.20
2018-01-20T05:58:44.977Z,31.93
2018-01-20T06:01:14.892Z,28.20
2018-01-20T06:03:44.427Z,26.50
2018-01-20T06:06:15.118Z,39.13
2018-01-20T06:08:44.685Z,31.87
2018-01-20T06:11:15.523Z,12.50
2018-01-20T06:13:45.064Z,12.43
2018-01-20T06:16:16.420Z,16.17
2018-01-20T06:18:45.929Z,21.33
2018-01-20T06:21:15.751Z,8.70
2018-01-20T06:23:45.323Z,21.50
2018-01-20T06:26:14.816Z,9.57
2018-01-20T06:28:44.374Z,11.70
2018-01-20T06:31:13.885Z,5.17
2018-01-20T06:33:43.926Z,33.93
2018-01-20T06:36:13.461Z,38.40
2018-01-20T06:38:45.429Z,14.57
2018-01-20T06:41:14.978Z,27.23
2018-01-20T06:43:44.572Z,31.53
2018-01-20T06:46:14.183Z,16.23
2018-01-20T06:48:44.065Z,51.70
2018-01-20T06:51:13.977Z,19.87
2018-01-20T06:53:43.584Z,27.83
2018-01-20T06:56:13.562Z,12.73
2018-01-20T06:58:49.614Z,21.10
2018-01-20T07:01:19.177Z,20.20
2018-01-20T07:03:48.773Z,20.73
2018-01-20T07:06:18.276Z,36.97
2018-01-20T07:08:47.833Z,30.47
2018-01-20T07:11:28.637Z,39.47
2018-01-20T07:13:58.910Z,13.80
2018-01-20T07:16:34.770Z,12.60
2018-01-20T07:19:04.366Z,39.33
2018-01-20T07:21:33.937Z,16.30
2018-01-20T07:24:03.504Z,15.77
2018-01-20T07:26:33.056Z,21.90
2018-01-20T07:29:02.605Z,34.00
2018-01-20T07:31:32.619Z,33.97
2018-01-20T07:34:02.490Z,14.57
2018-01-20T07:36:36.786Z,26.10
2018-01-20T07:39:06.273Z,10.70
2018-01-20T07:41:35.821Z,29.30
2018-01-20T07:44:05.380Z,27.83
2018-01-20T07:46:34.945Z,28.40
2018-01-20T07:49:05.839Z,61.17
2018-01-20T07:51:38.841Z,19.70
2018-01-20T07:54:08.401Z,19.57
2018-01-20T07:56:37.884Z,10.30
2018-01-20T07:59:07.425Z,31.47
2018-01-20T08:01:36.988Z,23.53
2018-01-20T08:04:06.550Z,46.37
2018-01-20T08:06:37.807Z,37.37
2018-01-20T08:09:07.343Z,16.47
2018-01-20T08:11:45.357Z,49.33
2018-01-20T08:14:14.929Z,21.43
2018-01-20T08:16:44.437Z,34.73
2018-01-20T08:19:14.104Z,26.43
2018-01-20T08:21:44.053Z,33.60
2018-01-20T08:24:20.058Z,18.23
2018-01-20T08:26:49.599Z,20.97
2018-01-20T08:29:19.148Z,48.93
2018-01-20T08:31:50.482Z,24.47
2018-01-20T08:34:20.484Z,24.13
2018-01-20T08:36:50.030Z,51.73
2018-01-20T08:39:19.545Z,30.03
2018-01-20T08:41:49.133Z,34.17
2018-01-20T08:44:18.635Z,27.00
2018-01-20T08:46:48.156Z,24.27
2018-01-20T08:49:18.360Z,23.27
2018-01-20T08:51:48.788Z,22.30
2018-01-20T08:54:18.403Z,11.10
2018-01-20T08:56:48.674Z,29.03
2018-01-20T08:59:26.908Z,9.30
2018-01-20T09:01:56.460Z,4.60
2018-01-20T09:04:26.251Z,1.40
2018-01-20T09:06:56.893Z,2.17
2018-01-20T09:09:26.661Z,5.27
2018-01-20T09:11:58.650Z,2.43
2018-01-20T09:14:28.511Z,3.57
2018-01-20T09:16:59.005Z,1.10
2018-01-20T09:19:28.558Z,1.20
2018-01-20T09:21:58.093Z,1.97
2018-01-20T09:24:30.719Z,1.10
2018-01-20T09:27:00.196Z,3.17
2018-01-20T09:29:29.722Z,18.80
2018-01-20T09:32:07.357Z,16.57
2018-01-20T09:34:36.837Z,7.90
2018-01-20T09:37:06.367Z,2.90
2018-01-20T09:39:35.912Z,3.83
2018-01-20T09:42:05.470Z,2.43
2018-01-20T09:44:35.003Z,6.10
2018-01-20T09:47:04.551Z,2.70
2018-01-20T09:49:34.093Z,1.97
2018-01-20T09:52:03.712Z,2.60
2018-01-20T09:54:39.851Z,8.50
2018-01-20T09:57:09.336Z,14.67
2018-01-20T09:59:45.342Z,4.20
2018-01-20T10:02:14.921Z,8.33
2018-01-20T10:04:48.043Z,1.63
2018-01-20T10:07:22.151Z,8.53
2018-01-20T10:10:08.814Z,3.73
2018-01-20T10:12:40.241Z,2.70
2018-01-20T10:15:10.959Z,2.13
2018-01-20T10:17:40.517Z,5.00
2018-01-20T10:20:10.075Z,6.40
2018-01-20T10:22:39.577Z,10.80
2018-01-20T10:25:09.685Z,5.83
2018-01-20T10:27:39.604Z,3.23
2018-01-20T10:30:15.444Z,4.73
2018-01-20T10:32:44.988Z,4.47
2018-01-20T10:35:14.476Z,3.40
2018-01-20T10:37:44.003Z,1.43
2018-01-20T10:40:13.545Z,6.83
2018-01-20T10:42:43.067Z,3.13
2018-01-20T10:45:12.616Z,3.50
2018-01-20T10:47:42.147Z,3.13
2018-01-20T10:50:11.692Z,3.70
2018-01-20T10:52:41.231Z,4.63
2018-01-20T10:55:11.302Z,4.73
2018-01-20T10:57:41.407Z,6.60
2018-01-20T11:00:11.164Z,7.43
2018-01-20T11:02:42.533Z,14.57
2018-01-20T11:05:12.078Z,6.53
2018-01-20T11:07:54.755Z,6.90
2018-01-20T11:10:24.801Z,12.97
2018-01-20T11:12:54.369Z,10.90
2018-01-20T11:15:23.839Z,3.50
2018-01-20T11:17:53.377Z,4.73
2018-01-20T11:20:32.249Z,2.20
2018-01-20T11:23:01.805Z,7.63
2018-01-20T11:25:33.492Z,7.83
2018-01-20T11:28:03.369Z,4.10
2018-01-20T11:30:32.901Z,3.10
2018-01-20T11:33:02.434Z,1.87
2018-01-20T11:35:31.990Z,3.90
2018-01-20T11:38:01.585Z,4.87
2018-01-20T11:40:31.166Z,5.50
2018-01-20T11:43:00.725Z,4.80
2018-01-20T11:45:30.828Z,8.13
2018-01-20T11:48:00.364Z,2.13
2018-01-20T11:50:29.964Z,4.53
2018-01-20T11:52:59.554Z,3.60
2018-01-20T11:55:29.084Z,5.47
2018-01-20T11:57:58.609Z,9.23
2018-01-20T12:00:28.187Z,2.97
2018-01-20T12:02:58.691Z,6.50
2018-01-20T12:05:28.532Z,5.30
2018-01-20T12:07:58.907Z,6.53
2018-01-20T12:10:28.419Z,9.43
2018-01-20T12:12:57.929Z,5.70
2018-01-20T12:15:28.225Z,5.23
2018-01-20T12:17:57.839Z,6.77
2018-01-20T12:20:27.424Z,6.70
2018-01-20T12:22:57.049Z,11.97
2018-01-20T12:25:26.667Z,9.13
2018-01-20T12:27:56.239Z,8.10
2018-01-20T12:30:30.529Z,4.90
2018-01-20T12:33:04.562Z,7.00
2018-01-20T12:35:40.294Z,3.80
2018-01-20T12:38:11.043Z,5.73
2018-01-20T12:40:40.734Z,6.27
2018-01-20T12:43:13.983Z,6.30
2018-01-20T12:45:48.817Z,7.13
2018-01-20T12:48:19.704Z,5.00
2018-01-20T12:50:49.279Z,5.70
2018-01-20T12:53:18.821Z,7.10
2018-01-20T12:55:50.899Z,6.80
2018-01-20T12:58:20.482Z,8.67
2018-01-20T13:00:50.424Z,4.50
2018-01-20T13:03:20.743Z,7.97
2018-01-20T13:05:50.280Z,13.17
2018-01-20T13:08:20.033Z,5.23
2018-01-20T13:10:49.901Z,35.07
2018-01-20T13:13:19.502Z,8.10
2018-01-20T13:15:49.196Z,4.70
2018-01-20T13:18:20.496Z,8.13
2018-01-20T13:20:51.991Z,8.10
2018-01-20T13:23:36.093Z,7.83
2018-01-20T13:26:07.385Z,34.20
2018-01-20T13:28:37.177Z,7.90
2018-01-20T13:31:10.328Z,5.53
2018-01-20T13:33:39.909Z,7.20
2018-01-20T13:36:09.495Z,10.33
2018-01-20T13:38:39.049Z,11.33
2018-01-20T13:41:08.556Z,5.57
2018-01-20T13:43:38.436Z,11.67
2018-01-20T13:46:09.919Z,4.87
2018-01-20T13:48:39.955Z,7.97
2018-01-20T13:51:09.810Z,11.70
2018-01-20T13:53:39.385Z,5.40
2018-01-20T13:56:09.369Z,3.67
2018-01-20T13:58:38.884Z,27.70
2018-01-20T14:01:08.636Z,6.70
2018-01-20T14:03:38.134Z,3.37
2018-01-20T14:06:07.687Z,9.40
2018-01-20T14:08:37.557Z,13.27
2018-01-20T14:11:19.904Z,8.43
2018-01-20T14:13:50.004Z,8.23
2018-01-20T14:16:19.649Z,4.13
2018-01-20T14:18:49.241Z,4.23
2018-01-20T14:21:23.543Z,11.57
2018-01-20T14:23:56.777Z,7.23
2018-01-20T14:26:26.404Z,7.87
2018-01-20T14:28:55.969Z,13.20
2018-01-20T14:31:25.568Z,6.90
2018-01-20T14:33:55.377Z,5.67
2018-01-20T14:36:24.889Z,11.33
2018-01-20T14:38:54.490Z,11.40
2018-01-20T14:41:24.919Z,5.63
2018-01-20T14:43:54.461Z,7.43
2018-01-20T14:46:24.308Z,10.20
2018-01-20T14:48:53.926Z,5.80
2018-01-20T14:51:23.455Z,4.57
2018-01-20T14:53:53.017Z,4.10
2018-01-20T14:56:22.530Z,6.50
2018-01-20T14:58:52.096Z,3.00
2018-01-20T15:01:22.444Z,5.87
2018-01-20T15:03:51.955Z,8.43
2018-01-20T15:06:22.395Z,1.97
2018-01-20T15:08:53.589Z,6.73
2018-01-20T15:11:23.364Z,7.20
2018-01-20T15:13:53.187Z,3.93
2018-01-20T15:16:30.573Z,3.40
2018-01-20T15:19:10.940Z,1.47
2018-01-20T15:21:40.809Z,2.00
2018-01-20T15:24:11.291Z,2.93
2018-01-20T15:26:40.881Z,3.97
2018-01-20T15:29:10.420Z,10.43
2018-01-20T15:31:40.213Z,6.90
2018-01-20T15:34:10.121Z,4.17
2018-01-20T15:36:39.697Z,5.57
2018-01-20T15:39:09.288Z,5.47
2018-01-20T15:41:39.250Z,9.40
2018-01-20T15:44:09.081Z,5.23
2018-01-20T15:46:38.673Z,5.83
2018-01-20T15:49:09.837Z,7.53
2018-01-20T15:51:39.475Z,10.73
2018-01-20T15:54:10.120Z,6.00
2018-01-20T15:56:40.548Z,3.10
2018-01-20T15:59:10.353Z,5.40
2018-01-20T16:01:40.240Z,2.53
2018-01-20T16:04:09.961Z,7.67
2018-01-20T16:06:39.508Z,14.27
2018-01-20T16:09:09.053Z,5.73
2018-01-20T16:11:38.560Z,5.27
2018-01-20T16:14:08.272Z,7.93
2018-01-20T16:16:37.819Z,3.67
2018-01-20T16:19:16.821Z,11.83
2018-01-20T16:21:46.443Z,3.77
2018-01-20T16:24:16.219Z,4.90
2018-01-20T16:26:46.714Z,4.73
2018-01-20T16:29:16.428Z,7.90
2018-01-20T16:31:47.534Z,1.83
2018-01-20T16:34:17.049Z,7.17
2018-01-20T16:36:46.831Z,3.70
2018-01-20T16:39:16.601Z,5.90
2018-01-20T16:41:47.074Z,10.83
2018-01-20T16:44:16.668Z,4.00
2018-01-20T16:46:46.428Z,6.50
2018-01-20T16:49:16.229Z,4.27
2018-01-20T16:51:45.772Z,4.40
2018-01-20T16:54:22.972Z,5.93
2018-01-20T16:56:53.336Z,6.10
2018-01-20T16:59:22.869Z,8.50
2018-01-20T17:01:52.670Z,5.77
2018-01-20T17:04:22.205Z,8.60
2018-01-20T17:06:51.812Z,3.23
2018-01-20T17:09:21.436Z,6.67
2018-01-20T17:11:55.767Z,9.33
2018-01-20T17:14:25.697Z,4.77
2018-01-20T17:16:55.560Z,8.17
2018-01-20T17:19:25.093Z,4.10
2018-01-20T17:21:55.401Z,4.50
2018-01-20T17:24:25.056Z,5.33
2018-01-20T17:26:54.592Z,7.87
2018-01-20T17:29:24.395Z,5.10
2018-01-20T17:31:54.161Z,9.43
2018-01-20T17:34:24.143Z,4.33
2018-01-20T17:36:53.680Z,15.83
2018-01-20T17:39:23.235Z,6.00
2018-01-20T17:41:52.789Z,4.77
2018-01-20T17:44:22.351Z,5.00
2018-01-20T17:46:51.928Z,2.43
2018-01-20T17:49:21.456Z,4.20
2018-01-20T17:51:51.421Z,3.90
2018-01-20T17:54:21.032Z,3.07
2018-01-20T17:56:50.622Z,2.27
2018-01-20T17:59:22.811Z,12.10
2018-01-20T18:01:52.652Z,5.00
2018-01-20T18:04:22.155Z,3.63
2018-01-20T18:06:51.673Z,1.97
2018-01-20T18:09:21.703Z,2.30
2018-01-20T18:11:52.099Z,9.33
2018-01-20T18:14:21.592Z,7.17
2018-01-20T18:16:51.135Z,5.10
2018-01-20T18:19:20.924Z,4.37
2018-01-20T18:21:50.481Z,2.73
2018-01-20T18:24:19.989Z,5.73
2018-01-20T18:26:49.667Z,5.00
2018-01-20T18:29:19.219Z,1.77
2018-01-20T18:31:49.824Z,2.90
2018-01-20T18:34:19.355Z,4.40
2018-01-20T18:36:49.353Z,1.33
2018-01-20T18:39:19.576Z,2.70
2018-01-20T18:41:49.085Z,1.50
2018-01-20T18:44:18.628Z,7.27
2018-01-20T18:46:48.157Z,1.73
2018-01-20T18:49:18.705Z,5.67
2018-01-20T18:51:48.515Z,1.70
2018-01-20T18:54:18.004Z,6.90
2018-01-20T18:56:47.524Z,1.83
2018-01-20T18:59:18.677Z,3.03
2018-01-20T19:01:48.369Z,3.77
2018-01-20T19:04:27.227Z,4.77
2018-01-20T19:06:57.562Z,7.13
2018-01-20T19:09:27.101Z,5.00
2018-01-20T19:11:56.612Z,3.20
2018-01-20T19:14:26.165Z,3.97
2018-01-20T19:16:57.383Z,4.43
2018-01-20T19:19:26.925Z,3.10
2018-01-20T19:21:56.505Z,5.57
2018-01-20T19:24:26.150Z,5.87
2018-01-20T19:26:55.709Z,1.67
2018-01-20T19:29:39.069Z,16.97
2018-01-20T19:32:10.953Z,2.70
2018-01-20T19:34:40.509Z,4.20
2018-01-20T19:37:10.080Z,2.17
2018-01-20T19:39:39.564Z,2.23
2018-01-20T19:42:09.062Z,7.13
2018-01-20T19:44:38.561Z,2.80
2018-01-20T19:47:08.497Z,3.10
2018-01-20T19:49:38.159Z,1.47
2018-01-20T19:52:15.385Z,2.43
2018-01-20T19:54:46.561Z,3.00
2018-01-20T19:57:16.540Z,2.73
2018-01-20T19:59:46.322Z,4.10
2018-01-20T20:02:20.613Z,3.23
2018-01-20T20:04:50.299Z,3.20
2018-01-20T20:07:21.064Z,2.37
2018-01-20T20:09:51.045Z,12.63
2018-01-20T20:12:20.765Z,3.03
2018-01-20T20:14:50.767Z,4.30
2018-01-20T20:17:20.500Z,2.90
2018-01-20T20:19:50.950Z,4.43
2018-01-20T20:22:20.468Z,3.33
2018-01-20T20:24:50.391Z,6.83
2018-01-20T20:27:20.151Z,5.53
2018-01-20T20:29:50.844Z,4.07
2018-01-20T20:32:20.641Z,7.07
2018-01-20T20:34:50.564Z,7.47
2018-01-20T20:37:21.144Z,5.73
2018-01-20T20:39:50.641Z,1.77
2018-01-20T20:42:20.276Z,6.00
2018-01-20T20:44:49.819Z,8.10
2018-01-20T20:47:19.887Z,3.53
2018-01-20T20:49:49.403Z,8.50
2018-01-20T20:52:19.073Z,7.90
2018-01-20T20:54:49.029Z,10.67
2018-01-20T20:57:19.105Z,2.13
2018-01-20T20:59:50.853Z,5.43
2018-01-20T21:02:20.804Z,2.77
2018-01-20T21:04:50.429Z,7.97
2018-01-20T21:07:19.993Z,3.97
2018-01-20T21:09:49.523Z,7.60
2018-01-20T21:12:19.088Z,11.83
2018-01-20T21:14:48.728Z,4.07
2018-01-20T21:17:18.257Z,9.80
2018-01-20T21:19:47.811Z,1.73
2018-01-20T21:22:17.723Z,4.37
2018-01-20T21:24:47.322Z,1.53
2018-01-20T21:27:16.808Z,4.73
2018-01-20T21:29:46.464Z,2.70
2018-01-20T21:32:15.967Z,6.30
2018-01-20T21:34:46.868Z,7.07
2018-01-20T21:37:16.416Z,17.63
2018-01-20T21:39:46.161Z,5.07
2018-01-20T21:42:17.313Z,8.83
2018-01-20T21:44:55.479Z,1.10
2018-01-20T21:47:25.111Z,2.00
2018-01-20T21:49:54.775Z,1.27
2018-01-20T21:52:24.334Z,1.47
2018-01-20T21:54:53.997Z,1.20
2018-01-20T21:57:35.665Z,6.40
2018-01-20T22:00:05.239Z,1.30
2018-01-20T22:02:34.793Z,3.23
2018-01-20T22:05:04.442Z,1.50
2018-01-20T22:07:34.619Z,1.20
2018-01-20T22:10:04.200Z,1.13
2018-01-20T22:12:33.686Z,2.10
2018-01-20T22:15:03.196Z,1.40
2018-01-20T22:17:33.399Z,1.43
2018-01-20T22:20:03.384Z,3.40
2018-01-20T22:22:41.332Z,1.47
2018-01-20T22:25:10.873Z,6.63
2018-01-20T22:27:40.602Z,5.73
2018-01-20T22:30:10.236Z,4.67
2018-01-20T22:32:43.566Z,10.87
2018-01-20T22:35:13.437Z,1.20
2018-01-20T22:37:43.641Z,7.23
2018-01-20T22:40:13.586Z,1.53
2018-01-20T22:42:43.135Z,1.87
2018-01-20T22:45:12.621Z,3.47
2018-01-20T22:47:42.101Z,1.20
2018-01-20T22:50:13.544Z,7.73
2018-01-20T22:52:43.219Z,7.43
2018-01-20T22:55:13.727Z,12.03
2018-01-20T22:57:43.313Z,8.20
2018-01-20T23:00:12.992Z,13.03
2018-01-20T23:02:42.553Z,17.63
2018-01-20T23:05:12.062Z,5.30
2018-01-20T23:07:41.577Z,1.50
2018-01-20T23:10:11.253Z,2.20
2018-01-20T23:12:40.893Z,16.33
2018-01-20T23:15:10.440Z,3.93
2018-01-20T23:17:40.006Z,1.50
2018-01-20T23:20:10.293Z,6.13
2018-01-20T23:22:39.831Z,4.07
2018-01-20T23:25:09.380Z,8.33
2018-01-20T23:27:38.924Z,7.37
2018-01-20T23:30:08.518Z,2.37
2018-01-20T23:32:51.953Z,5.50
2018-01-20T23:35:21.508Z,4.37
2018-01-20T23:37:52.344Z,6.10
2018-01-20T23:40:22.027Z,5.10
2018-01-20T23:42:59.439Z,8.20
2018-01-20T23:45:29.888Z,2.90
2018-01-20T23:48:11.533Z,4.37
2018-01-20T23:50:41.490Z,3.83
2018-01-20T23:53:19.628Z,15.23
2018-01-20T23:55:49.271Z,7.80
2018-01-20T23:58:18.817Z,15.07
